Airfield :
LOGIN :

Register | Disclaimer

   EN    FR    IT 

 










Legend :    VFR   Marginal VFR   IFR   Intensive IFR   Very Intensive IFR
Visi :
Ceiling :
>= 8 km
>= 3000ft
5 to 8 km
1000 to 3000 ft
1500m to 5 km
500 to 1000 ft
800 to 1500m
200 to 500 ft
< 800m
< 200 ft
Symbols :   Thunderstorms  Fog  Heavy snow  Heavy precipitations  Wind > 20 kt
SIGMETs :     Misc.  Thunderstorms  Icing  Turbulence  Mountain Waves  Volcanic Ashes






- Airport Elevation : 538 ft
- IATA code : TNF


LFPN - Toussus Le Noble

CURRENT METAR :
  • 230800Z AUTO 24009KT 9999 // BKN012 OVC018 21/19 Q1019

EXPIRED METARs :
  • 230730Z AUTO 24010KT 9999 OVC010 20/19 Q1019 TEMPO 4000 -RADZ OVC004
  • 230700Z AUTO 24008KT 6000 -RA OVC006 19/19 Q1019 TEMPO 4000 -RADZ OVC004
  • 230630Z AUTO 23008KT 7000 -RADZ OVC007 19/18 Q1019 TEMPO 4000 -RADZ OVC004
  • 230600Z AUTO 23009KT 9999 -DZ OVC007 19/18 Q1019 TEMPO 4000 -RADZ OVC004
  • 230530Z AUTO 23009KT 9999 -RADZ OVC007 19/18 Q1019
  • 230500Z AUTO 24008KT 9999 OVC007 18/18 Q1019
  • 230430Z AUTO 24009KT 9999 OVC006 18/18 Q1019
  • 230400Z AUTO 24010KT 9999 OVC006 18/18 Q1019
  • 230330Z AUTO 23010KT 9999 OVC007 18/18 Q1019

TAF TAF LFPN
Valid from the 23 at 06:00 until the 23 at 15:00 UTC


230500Z 2306/2315 23010KT 9999 OVC007
TEMPO 2306/2309 4000 -RADZ
PROB30
TEMPO 2306/2309 OVC004
BECMG 2309/2310 BKN012
BECMG 2310/2312 BKN020
TEMPO 2311/2315 31010G20KT
ATIS : +33 1 39 56 54 70



MET'MAP, your aeronautical weather chart ! - Copyright ORBIFLY December 2007 - Disclaimer

ORBIFLY MET'MAP TEAM :

Programming & Development : Alexandra Zaïnal
Original concept : Baudouin d'Aumeries
Technical & hardware support : Manuel Goepfert
Assistance : Marc-Olivier Méhu




SOURCES & CREDITS :

   NOAA